createdAt,value
2022-11-20T00:01:54.715Z,51.47
2022-11-20T00:04:23.372Z,48.70
2022-11-20T00:06:53.443Z,44.70
2022-11-20T00:09:22.998Z,36.17
2022-11-20T00:11:51.833Z,49.17
2022-11-20T00:14:20.611Z,70.20
2022-11-20T00:16:49.238Z,51.90
2022-11-20T00:19:18.288Z,52.60
2022-11-20T00:21:47.240Z,46.63
2022-11-20T00:24:17.267Z,55.23
2022-11-20T00:26:45.901Z,57.13
2022-11-20T00:29:14.721Z,54.23
2022-11-20T00:31:43.404Z,48.47
2022-11-20T00:34:12.350Z,49.57
2022-11-20T00:36:40.966Z,44.37
2022-11-20T00:39:09.606Z,45.60
2022-11-20T00:41:39.717Z,46.97
2022-11-20T00:44:08.345Z,49.30
2022-11-20T00:46:37.431Z,42.77
2022-11-20T00:49:06.059Z,49.23
2022-11-20T00:51:34.721Z,53.67
2022-11-20T00:54:03.929Z,51.40
2022-11-20T00:56:32.571Z,63.20
2022-11-20T00:59:03.572Z,58.07
2022-11-20T01:01:32.351Z,45.50
2022-11-20T01:04:02.307Z,40.23
2022-11-20T01:06:32.351Z,55.20
2022-11-20T01:09:02.736Z,49.53
2022-11-20T01:11:33.004Z,58.57
2022-11-20T01:14:05.220Z,48.50
2022-11-20T01:16:35.175Z,52.07
2022-11-20T01:19:06.324Z,48.90
2022-11-20T01:21:36.899Z,56.30
2022-11-20T01:24:07.965Z,45.60
2022-11-20T01:26:39.144Z,48.73
2022-11-20T01:29:12.864Z,46.60
2022-11-20T01:31:41.620Z,50.10
2022-11-20T01:34:13.162Z,43.57
2022-11-20T01:36:43.704Z,45.13
2022-11-20T01:39:15.343Z,38.37
2022-11-20T01:42:05.683Z,47.07
2022-11-20T01:44:56.639Z,35.90
2022-11-20T01:47:31.036Z,43.43
2022-11-20T01:50:03.064Z,42.47
2022-11-20T01:52:36.039Z,43.97
2022-11-20T01:55:08.674Z,38.77
2022-11-20T01:57:38.027Z,43.37
2022-11-20T02:00:11.143Z,48.03
2022-11-20T02:02:41.418Z,48.50
2022-11-20T02:05:19.768Z,45.03
2022-11-20T02:07:50.323Z,36.20
2022-11-20T02:10:19.140Z,49.83
2022-11-20T02:13:05.355Z,44.73
2022-11-20T02:15:36.755Z,48.10
2022-11-20T02:18:06.308Z,54.17
2022-11-20T02:20:35.587Z,39.73
2022-11-20T02:23:10.679Z,39.23
2022-11-20T02:25:41.635Z,45.40
2022-11-20T02:28:10.599Z,38.00
2022-11-20T02:30:39.240Z,41.83
2022-11-20T02:33:07.854Z,35.90
2022-11-20T02:35:45.415Z,43.37
2022-11-20T02:38:14.955Z,40.10
2022-11-20T02:40:45.204Z,44.60
2022-11-20T02:43:13.898Z,39.80
2022-11-20T02:45:42.590Z,46.70
2022-11-20T02:48:11.280Z,37.17
2022-11-20T02:50:41.363Z,40.73
2022-11-20T02:53:10.027Z,44.90
2022-11-20T02:55:38.910Z,55.20
2022-11-20T02:58:09.127Z,41.70
2022-11-20T03:00:37.795Z,42.60
2022-11-20T03:03:06.427Z,43.83
2022-11-20T03:05:35.050Z,36.43
2022-11-20T03:08:03.919Z,31.33
2022-11-20T03:10:32.665Z,39.03
2022-11-20T03:13:01.337Z,38.67
2022-11-20T03:15:31.331Z,47.63
2022-11-20T03:18:00.069Z,40.53
2022-11-20T03:20:28.713Z,35.90
2022-11-20T03:22:57.368Z,44.37
2022-11-20T03:25:25.969Z,33.83
2022-11-20T03:27:54.647Z,41.23
2022-11-20T03:30:27.619Z,39.40
2022-11-20T03:33:00.783Z,38.30
2022-11-20T03:35:29.439Z,38.60
2022-11-20T03:37:59.151Z,40.73
2022-11-20T03:40:27.786Z,31.10
2022-11-20T03:42:56.392Z,36.47
2022-11-20T03:45:24.984Z,49.20
2022-11-20T03:47:53.752Z,38.10
2022-11-20T03:50:23.780Z,38.30
2022-11-20T03:52:52.435Z,40.50
2022-11-20T03:55:21.054Z,40.80
2022-11-20T03:57:49.702Z,37.07
2022-11-20T04:00:18.675Z,39.10
2022-11-20T04:02:47.623Z,39.67
2022-11-20T04:05:16.382Z,29.23
2022-11-20T04:07:46.376Z,36.97
2022-11-20T04:10:14.996Z,36.10
2022-11-20T04:12:43.604Z,40.23
2022-11-20T04:15:12.639Z,28.23
2022-11-20T04:17:41.233Z,38.87
2022-11-20T04:20:10.508Z,36.23
2022-11-20T04:22:39.114Z,30.70
2022-11-20T04:25:10.060Z,31.53
2022-11-20T04:27:38.669Z,41.27
2022-11-20T04:30:08.327Z,40.37
2022-11-20T04:32:36.936Z,31.00
2022-11-20T04:35:05.902Z,30.33
2022-11-20T04:37:34.744Z,30.30
2022-11-20T04:40:03.372Z,41.90
2022-11-20T04:42:33.387Z,37.37
2022-11-20T04:45:01.965Z,43.07
2022-11-20T04:47:30.557Z,34.87
2022-11-20T04:49:59.196Z,30.00
2022-11-20T04:52:27.860Z,39.70
2022-11-20T04:54:56.639Z,41.50
2022-11-20T04:57:25.317Z,34.87
2022-11-20T04:59:55.338Z,42.17
2022-11-20T05:02:24.695Z,32.90
2022-11-20T05:04:53.403Z,30.67
2022-11-20T05:07:22.046Z,38.60
2022-11-20T05:09:51.023Z,29.67
2022-11-20T05:12:19.650Z,29.33
2022-11-20T05:14:48.267Z,30.97
2022-11-20T05:17:18.340Z,27.77
2022-11-20T05:19:50.643Z,31.67
2022-11-20T05:22:21.726Z,38.63
2022-11-20T05:24:50.368Z,31.83
2022-11-20T05:27:19.004Z,37.67
2022-11-20T05:29:47.666Z,35.43
2022-11-20T05:32:17.704Z,31.23
2022-11-20T05:34:46.342Z,36.77
2022-11-20T05:37:14.978Z,34.20
2022-11-20T05:39:43.636Z,39.10
2022-11-20T05:42:29.437Z,37.13
2022-11-20T05:44:58.165Z,40.10
2022-11-20T05:47:28.619Z,40.37
2022-11-20T05:49:57.332Z,30.90
2022-11-20T05:52:26.007Z,36.70
2022-11-20T05:54:54.669Z,30.10
2022-11-20T05:57:23.261Z,35.17
2022-11-20T05:59:51.885Z,33.70
2022-11-20T06:02:20.536Z,34.80
2022-11-20T06:04:50.579Z,36.20
2022-11-20T06:07:19.333Z,32.83
2022-11-20T06:09:47.977Z,42.07
2022-11-20T06:12:16.601Z,33.43
2022-11-20T06:14:45.291Z,43.60
2022-11-20T06:17:13.855Z,29.17
2022-11-20T06:19:42.473Z,31.83
2022-11-20T06:22:12.517Z,63.63
2022-11-20T06:24:41.234Z,35.90
2022-11-20T06:27:09.905Z,36.07
2022-11-20T06:29:38.511Z,41.33
2022-11-20T06:32:07.302Z,32.83
2022-11-20T06:34:35.967Z,30.97
2022-11-20T06:37:04.647Z,36.03
2022-11-20T06:39:34.714Z,33.27
2022-11-20T06:42:03.539Z,35.30
2022-11-20T06:44:32.155Z,37.13
2022-11-20T06:47:00.806Z,31.77
2022-11-20T06:49:29.417Z,48.13
2022-11-20T06:51:58.167Z,30.87
2022-11-20T06:54:27.384Z,37.90
2022-11-20T06:56:57.377Z,42.37
2022-11-20T06:59:26.051Z,42.90
2022-11-20T07:01:54.720Z,30.87
2022-11-20T07:04:23.352Z,33.13
2022-11-20T07:06:51.988Z,38.90
2022-11-20T07:09:20.770Z,38.33
2022-11-20T07:11:49.639Z,38.77
2022-11-20T07:14:19.969Z,40.87
2022-11-20T07:16:48.679Z,40.63
2022-11-20T07:19:17.476Z,36.73
2022-11-20T07:21:46.268Z,38.17
2022-11-20T07:24:14.883Z,45.23
2022-11-20T07:26:43.666Z,41.87
2022-11-20T07:29:12.392Z,33.93
2022-11-20T07:31:42.500Z,40.07
2022-11-20T07:34:11.246Z,37.67
2022-11-20T07:36:40.006Z,43.03
2022-11-20T07:39:08.778Z,50.47
2022-11-20T07:41:37.612Z,47.63
2022-11-20T07:44:07.051Z,43.77
2022-11-20T07:46:36.347Z,49.00
2022-11-20T07:49:07.063Z,46.93
2022-11-20T07:51:35.997Z,78.07
2022-11-20T07:54:05.213Z,65.50
2022-11-20T07:56:34.282Z,56.47
2022-11-20T07:59:03.268Z,58.53
2022-11-20T08:01:32.472Z,50.33
2022-11-20T08:04:01.507Z,48.87
2022-11-20T08:06:32.042Z,46.90
2022-11-20T08:09:01.469Z,35.03
2022-11-20T08:11:47.948Z,45.37
2022-11-20T08:14:17.242Z,45.50
2022-11-20T08:16:47.900Z,49.73
2022-11-20T08:19:18.738Z,36.23
2022-11-20T08:21:49.383Z,37.10
2022-11-20T08:24:18.479Z,45.87
2022-11-20T08:26:47.442Z,50.00
2022-11-20T08:29:19.012Z,48.83
2022-11-20T08:31:48.009Z,46.87
2022-11-20T08:34:19.171Z,32.07
2022-11-20T08:36:50.126Z,37.80
2022-11-20T08:39:19.591Z,55.67
2022-11-20T08:41:48.916Z,44.53
2022-11-20T08:44:17.806Z,45.87
2022-11-20T08:46:48.257Z,40.37
2022-11-20T08:49:19.069Z,53.00
2022-11-20T08:51:52.637Z,33.43
2022-11-20T08:54:22.929Z,43.27
2022-11-20T08:56:51.779Z,35.77
2022-11-20T08:59:50.701Z,31.50
2022-11-20T09:02:09.922Z,24.07
2022-11-20T09:04:38.689Z,39.27
2022-11-20T09:07:09.093Z,47.63
2022-11-20T09:09:37.882Z,47.90
2022-11-20T09:12:07.085Z,34.77
2022-11-20T09:14:35.779Z,32.70
2022-11-20T09:17:04.644Z,31.20
2022-11-20T09:19:35.767Z,29.53
2022-11-20T09:22:05.109Z,31.00
2022-11-20T09:24:35.222Z,35.87
2022-11-20T09:27:07.570Z,128.20
2022-11-20T09:29:36.222Z,36.10
2022-11-20T09:32:05.049Z,31.17
2022-11-20T09:34:33.890Z,28.67
2022-11-20T09:37:06.184Z,25.83
2022-11-20T09:42:39.898Z,31.30
2022-11-20T09:45:19.258Z,33.30
2022-11-20T09:48:02.962Z,27.97
2022-11-20T09:50:38.053Z,25.20
2022-11-20T09:53:25.868Z,32.33
2022-11-20T09:55:56.463Z,27.20
2022-11-20T09:58:33.173Z,28.60
2022-11-20T10:01:11.756Z,30.30
2022-11-20T10:03:55.675Z,28.70
2022-11-20T10:06:31.125Z,36.20
2022-11-20T10:09:08.330Z,35.97
2022-11-20T10:11:48.812Z,26.70
2022-11-20T10:14:28.552Z,27.67
2022-11-20T10:17:11.536Z,30.60
2022-11-20T10:19:55.335Z,24.83
2022-11-20T10:22:37.269Z,25.60
2022-11-20T10:25:14.306Z,26.20
2022-11-20T10:27:58.560Z,25.40
2022-11-20T10:30:28.071Z,31.73
2022-11-20T10:33:03.368Z,24.77
2022-11-20T10:35:37.380Z,22.97
2022-11-20T10:38:12.382Z,26.50
2022-11-20T10:40:43.714Z,28.23
2022-11-20T10:43:18.520Z,26.97
2022-11-20T10:45:53.118Z,23.83
2022-11-20T10:48:24.629Z,29.13
2022-11-20T10:51:19.245Z,24.07
2022-11-20T10:53:58.652Z,21.83
2022-11-20T10:56:35.996Z,30.87
2022-11-20T10:59:34.162Z,29.67
2022-11-20T11:02:03.610Z,25.23
2022-11-20T11:04:39.230Z,28.90
2022-11-20T11:07:13.068Z,20.50
2022-11-20T11:09:45.417Z,20.40
2022-11-20T11:12:14.799Z,23.23
2022-11-20T11:14:51.872Z,26.07
2022-11-20T11:17:28.316Z,18.33
2022-11-20T11:20:06.799Z,20.97
2022-11-20T11:22:45.991Z,23.53
2022-11-20T11:25:27.965Z,23.87
2022-11-20T11:27:58.626Z,23.47
2022-11-20T11:30:32.176Z,22.63
2022-11-20T11:33:09.066Z,28.23
2022-11-20T11:35:49.924Z,17.23
2022-11-20T11:38:33.506Z,22.20
2022-11-20T11:41:03.105Z,23.30
2022-11-20T11:43:52.063Z,27.43
2022-11-20T11:46:36.957Z,27.70
2022-11-20T11:49:18.609Z,20.40
2022-11-20T11:52:02.356Z,25.07
2022-11-20T11:54:36.836Z,29.00
2022-11-20T11:57:13.517Z,23.10
2022-11-20T12:00:01.416Z,24.13
2022-11-20T12:02:38.509Z,32.77
2022-11-20T12:05:20.047Z,30.33
2022-11-20T12:07:53.216Z,24.47
2022-11-20T12:10:24.994Z,26.77
2022-11-20T12:12:58.605Z,29.33
2022-11-20T12:15:33.319Z,28.93
2022-11-20T12:18:03.887Z,13.13
2022-11-20T12:20:42.693Z,27.60
2022-11-20T12:23:18.264Z,22.13
2022-11-20T12:25:50.890Z,40.13
2022-11-20T12:28:41.804Z,29.13
2022-11-20T12:31:28.900Z,24.80
2022-11-20T12:34:08.358Z,22.83
2022-11-20T12:36:43.196Z,20.93
2022-11-20T12:39:42.168Z,23.00
2022-11-20T12:42:47.650Z,16.33
2022-11-20T12:45:31.098Z,28.13
2022-11-20T12:48:26.661Z,21.63
2022-11-20T12:51:27.653Z,23.63
2022-11-20T12:54:10.076Z,24.47
2022-11-20T12:56:48.148Z,22.63
2022-11-20T12:59:49.641Z,22.20
2022-11-20T13:02:28.501Z,23.63
2022-11-20T13:05:11.247Z,24.43
2022-11-20T13:07:42.264Z,24.17
2022-11-20T13:10:20.430Z,16.43
2022-11-20T13:12:52.388Z,29.37
2022-11-20T13:15:33.443Z,32.03
2022-11-20T13:18:04.283Z,20.27
2022-11-20T13:20:37.114Z,25.27
2022-11-20T13:23:39.150Z,15.67
2022-11-20T13:26:22.610Z,13.23
2022-11-20T13:29:04.743Z,14.97
2022-11-20T13:31:39.548Z,14.93
2022-11-20T13:34:14.050Z,16.33
2022-11-20T13:36:56.679Z,15.17
2022-11-20T13:39:31.688Z,13.37
2022-11-20T13:42:01.983Z,14.40
2022-11-20T13:44:38.152Z,15.00
2022-11-20T13:47:21.126Z,15.00
2022-11-20T13:50:05.674Z,12.83
2022-11-20T13:52:53.314Z,17.33
2022-11-20T13:55:47.406Z,15.10
2022-11-20T13:58:36.628Z,13.53
2022-11-20T14:01:13.486Z,18.13
2022-11-20T14:04:04.994Z,18.20
2022-11-20T14:06:33.818Z,16.67
2022-11-20T14:09:03.081Z,24.83
2022-11-20T14:11:34.659Z,14.13
2022-11-20T14:14:16.211Z,11.87
2022-11-20T14:16:49.618Z,29.03
2022-11-20T14:19:31.401Z,18.10
2022-11-20T14:22:18.528Z,18.73
2022-11-20T14:24:47.265Z,16.70
2022-11-20T14:27:20.442Z,16.83
2022-11-20T14:29:51.924Z,15.87
2022-11-20T14:32:23.225Z,26.90
2022-11-20T14:34:52.967Z,14.90
2022-11-20T14:38:09.215Z,15.13
2022-11-20T14:40:39.708Z,17.43
2022-11-20T14:43:21.931Z,36.50
2022-11-20T14:45:58.975Z,17.43
2022-11-20T14:48:32.910Z,33.83
2022-11-20T14:51:01.878Z,37.67
2022-11-20T14:53:30.943Z,21.80
2022-11-20T14:56:01.940Z,22.27
2022-11-20T14:58:34.437Z,17.80
2022-11-20T15:01:06.907Z,17.90
2022-11-20T15:03:37.304Z,22.43
2022-11-20T15:06:07.083Z,21.20
2022-11-20T15:08:36.661Z,18.23
2022-11-20T15:11:05.926Z,24.40
2022-11-20T15:13:39.054Z,28.40
2022-11-20T15:16:17.123Z,23.80
2022-11-20T15:18:46.186Z,31.07
2022-11-20T15:21:16.807Z,26.30
2022-11-20T15:23:46.915Z,27.93
2022-11-20T15:26:20.768Z,33.57
2022-11-20T15:28:51.718Z,48.27
2022-11-20T15:31:37.676Z,58.13
2022-11-20T15:34:08.638Z,48.37
2022-11-20T15:36:37.491Z,32.03
2022-11-20T15:39:08.103Z,38.27
2022-11-20T15:41:40.364Z,22.60
2022-11-20T15:44:13.840Z,29.90
2022-11-20T15:46:46.094Z,33.70
2022-11-20T15:49:16.466Z,26.77
2022-11-20T15:51:48.746Z,27.50
2022-11-20T15:54:21.309Z,21.10
2022-11-20T15:56:50.742Z,28.07
2022-11-20T15:59:21.242Z,27.67
2022-11-20T16:01:50.225Z,27.23
2022-11-20T16:04:20.051Z,34.33
2022-11-20T16:06:51.749Z,36.80
2022-11-20T16:09:21.291Z,29.57
2022-11-20T16:11:50.102Z,49.30
2022-11-20T16:14:37.918Z,42.07
2022-11-20T16:17:29.365Z,27.53
2022-11-20T16:19:58.176Z,23.53
2022-11-20T16:22:27.144Z,30.23
2022-11-20T16:24:59.106Z,21.70
2022-11-20T16:27:40.697Z,24.37
2022-11-20T16:30:16.320Z,23.03
2022-11-20T16:32:46.924Z,28.13
2022-11-20T16:38:50.995Z,29.63
2022-11-20T16:41:22.219Z,27.93
2022-11-20T16:44:02.463Z,31.90
2022-11-20T16:46:36.427Z,32.90
2022-11-20T16:49:07.522Z,32.33
2022-11-20T16:51:37.970Z,25.90
2022-11-20T16:54:09.037Z,34.00
2022-11-20T16:56:38.004Z,25.23
2022-11-20T16:59:10.310Z,33.80
2022-11-20T17:01:43.203Z,41.43
2022-11-20T17:04:14.600Z,31.57
2022-11-20T17:06:48.033Z,34.73
2022-11-20T17:09:17.257Z,60.37
2022-11-20T17:11:48.605Z,45.63
2022-11-20T17:14:17.502Z,42.60
2022-11-20T17:16:49.759Z,60.10
2022-11-20T17:19:19.147Z,68.73
2022-11-20T17:21:48.250Z,46.53
2022-11-20T17:24:17.219Z,35.13
2022-11-20T17:26:49.325Z,42.07
2022-11-20T17:29:37.756Z,31.40
2022-11-20T17:32:11.014Z,35.57
2022-11-20T17:34:40.207Z,33.33
2022-11-20T17:37:09.073Z,28.30
2022-11-20T17:39:37.937Z,39.53
2022-11-20T17:42:24.445Z,29.97
2022-11-20T17:44:53.392Z,33.90
2022-11-20T17:47:23.998Z,24.90
2022-11-20T17:49:53.742Z,33.17
2022-11-20T17:52:24.675Z,32.20
2022-11-20T17:54:56.246Z,31.97
2022-11-20T17:57:43.243Z,37.70
2022-11-20T18:00:13.390Z,38.70
2022-11-20T18:02:49.343Z,38.63
2022-11-20T18:05:21.113Z,40.17
2022-11-20T18:07:55.147Z,33.93
2022-11-20T18:10:26.847Z,34.57
2022-11-20T18:12:55.504Z,41.40
2022-11-20T18:15:24.502Z,34.20
2022-11-20T18:17:54.713Z,30.20
2022-11-20T18:20:35.198Z,33.30
2022-11-20T18:23:05.395Z,44.23
2022-11-20T18:25:38.026Z,32.93
2022-11-20T18:28:07.139Z,34.40
2022-11-20T18:30:37.396Z,28.30
2022-11-20T18:33:08.543Z,30.57
2022-11-20T18:35:37.455Z,28.23
2022-11-20T18:38:06.304Z,39.77
2022-11-20T18:40:36.936Z,38.07
2022-11-20T18:43:23.998Z,56.57
2022-11-20T18:45:53.343Z,36.83
2022-11-20T18:48:23.682Z,35.57
2022-11-20T18:50:52.515Z,38.03
2022-11-20T18:53:25.329Z,37.37
2022-11-20T18:56:02.893Z,36.47
2022-11-20T18:58:44.815Z,36.03
2022-11-20T19:01:15.952Z,42.43
2022-11-20T19:03:46.965Z,34.67
2022-11-20T19:06:16.954Z,32.03
2022-11-20T19:08:46.620Z,45.30
2022-11-20T19:11:16.189Z,28.57
2022-11-20T19:13:45.143Z,37.83
2022-11-20T19:16:16.840Z,36.13
2022-11-20T19:18:48.602Z,40.23
2022-11-20T19:21:21.899Z,36.83
2022-11-20T19:23:51.537Z,36.23
2022-11-20T19:26:21.099Z,32.83
2022-11-20T19:28:50.415Z,32.27
2022-11-20T19:31:24.459Z,34.27
2022-11-20T19:33:57.177Z,32.80
2022-11-20T19:36:28.911Z,31.83
2022-11-20T19:38:58.810Z,27.47
2022-11-20T19:41:30.475Z,34.33
2022-11-20T19:43:59.829Z,33.67
2022-11-20T19:46:30.149Z,32.67
2022-11-20T19:49:00.480Z,35.00
2022-11-20T19:51:30.979Z,33.70
2022-11-20T19:54:00.773Z,42.03
2022-11-20T19:56:31.292Z,33.43
2022-11-20T19:59:02.600Z,41.30
2022-11-20T20:01:32.811Z,38.47
2022-11-20T20:04:05.526Z,36.97
2022-11-20T20:06:36.203Z,26.27
2022-11-20T20:09:07.647Z,36.93
2022-11-20T20:11:37.415Z,34.97
2022-11-20T20:14:09.246Z,40.43
2022-11-20T20:16:38.290Z,44.53
2022-11-20T20:19:08.719Z,40.33
2022-11-20T20:21:37.944Z,42.30
2022-11-20T20:24:08.316Z,45.03
2022-11-20T20:26:37.351Z,38.03
2022-11-20T20:29:12.159Z,58.90
2022-11-20T20:31:42.312Z,47.23
2022-11-20T20:34:12.808Z,41.37
2022-11-20T20:36:43.381Z,51.73
2022-11-20T20:39:15.279Z,50.27
2022-11-20T20:41:44.158Z,70.63
2022-11-20T20:44:29.994Z,55.53
2022-11-20T20:46:58.843Z,57.60
2022-11-20T20:49:29.057Z,47.50
2022-11-20T20:51:57.868Z,47.27
2022-11-20T20:54:30.241Z,50.77
2022-11-20T20:57:02.097Z,48.97
2022-11-20T20:59:30.902Z,41.43
2022-11-20T21:01:59.656Z,48.03
2022-11-20T21:04:30.338Z,46.27
2022-11-20T21:07:02.349Z,48.03
2022-11-20T21:09:36.952Z,37.13
2022-11-20T21:12:06.576Z,36.90
2022-11-20T21:14:35.833Z,44.13
2022-11-20T21:17:04.868Z,41.80
2022-11-20T21:19:35.846Z,49.70
2022-11-20T21:22:04.001Z,49.27
2022-11-20T21:24:34.335Z,41.60
2022-11-20T21:27:06.809Z,50.37
2022-11-20T21:29:35.738Z,42.03
2022-11-20T21:32:04.797Z,48.40
2022-11-20T21:34:41.417Z,38.27
2022-11-20T21:37:16.250Z,36.47
2022-11-20T21:39:51.800Z,44.07
2022-11-20T21:42:22.815Z,42.27
2022-11-20T21:44:51.962Z,37.13
2022-11-20T21:47:21.266Z,43.10
2022-11-20T21:49:51.618Z,32.17
2022-11-20T21:52:28.135Z,40.03
2022-11-20T21:54:58.967Z,36.60
2022-11-20T21:57:27.958Z,77.50
2022-11-20T21:59:57.081Z,62.23
2022-11-20T22:02:26.368Z,43.83
2022-11-20T22:04:59.457Z,37.23
2022-11-20T22:07:30.307Z,45.77
2022-11-20T22:09:59.520Z,47.07
2022-11-20T22:12:35.565Z,44.97
2022-11-20T22:15:06.818Z,49.53
2022-11-20T22:17:55.205Z,40.90
2022-11-20T22:20:25.497Z,49.53
2022-11-20T22:22:55.015Z,42.93
2022-11-20T22:25:23.946Z,51.83
2022-11-20T22:27:52.668Z,46.23
2022-11-20T22:30:21.485Z,42.00
2022-11-20T22:32:50.933Z,47.70
2022-11-20T22:35:19.908Z,41.13
2022-11-20T22:37:52.309Z,44.80
2022-11-20T22:40:21.640Z,48.00
2022-11-20T22:42:50.382Z,52.73
2022-11-20T22:45:19.455Z,42.47
2022-11-20T22:47:48.915Z,47.27
2022-11-20T22:50:17.852Z,37.70
2022-11-20T22:52:47.058Z,37.70
2022-11-20T22:55:17.727Z,42.70
2022-11-20T22:57:46.768Z,37.70
2022-11-20T23:00:16.784Z,41.50
2022-11-20T23:02:46.749Z,41.77
2022-11-20T23:05:15.823Z,33.70
2022-11-20T23:07:45.189Z,39.50
2022-11-20T23:10:14.270Z,33.23
2022-11-20T23:12:44.878Z,44.70
2022-11-20T23:15:13.798Z,36.90
2022-11-20T23:17:42.864Z,28.80
2022-11-20T23:20:15.422Z,37.43
2022-11-20T23:22:44.261Z,38.80
2022-11-20T23:25:15.272Z,43.20
2022-11-20T23:27:45.647Z,36.53
2022-11-20T23:30:14.653Z,33.17
2022-11-20T23:32:46.465Z,36.37
2022-11-20T23:35:15.367Z,35.90
2022-11-20T23:37:46.870Z,34.63
2022-11-20T23:40:16.266Z,43.13
2022-11-20T23:43:00.352Z,36.20
2022-11-20T23:45:29.463Z,41.87
2022-11-20T23:47:58.617Z,31.03
2022-11-20T23:50:27.546Z,41.90
2022-11-20T23:52:56.377Z,40.43
2022-11-20T23:55:25.221Z,34.73
2022-11-20T23:57:57.513Z,41.30
